createdAt,value
2023-04-16T00:01:41.141Z,69.65
2023-04-16T00:04:09.123Z,75.06
2023-04-16T00:06:36.973Z,75.54
2023-04-16T00:09:04.758Z,76.94
2023-04-16T00:11:32.456Z,76.52
2023-04-16T00:14:00.331Z,77.39
2023-04-16T00:16:29.544Z,77.73
2023-04-16T00:18:57.276Z,76.65
2023-04-16T00:21:25.020Z,77.50
2023-04-16T00:23:52.774Z,76.85
2023-04-16T00:26:20.581Z,77.81
2023-04-16T00:28:48.313Z,78.63
2023-04-16T00:31:16.035Z,79.06
2023-04-16T00:33:45.235Z,78.94
2023-04-16T00:36:12.977Z,79.11
2023-04-16T00:38:40.713Z,79.78
2023-04-16T00:41:08.414Z,78.81
2023-04-16T00:43:36.091Z,78.62
2023-04-16T00:46:06.787Z,78.59
2023-04-16T00:48:34.939Z,80.15
2023-04-16T00:51:06.510Z,80.33
2023-04-16T00:53:35.548Z,78.69
2023-04-16T00:56:04.175Z,79.77
2023-04-16T00:58:32.514Z,78.96
2023-04-16T01:01:01.171Z,79.52
2023-04-16T01:03:38.328Z,79.74
2023-04-16T01:06:08.332Z,80.13
2023-04-16T01:08:36.456Z,79.49
2023-04-16T01:11:04.841Z,79.94
2023-04-16T01:13:32.654Z,78.78
2023-04-16T01:16:00.695Z,79.12
2023-04-16T01:18:28.464Z,78.67
2023-04-16T01:20:57.602Z,78.40
2023-04-16T01:23:25.478Z,78.66
2023-04-16T01:25:53.422Z,79.69
2023-04-16T01:28:21.435Z,79.60
2023-04-16T01:30:49.152Z,79.72
2023-04-16T01:33:18.144Z,80.60
2023-04-16T01:35:46.042Z,80.06
2023-04-16T01:38:15.163Z,80.41
2023-04-16T01:40:42.913Z,79.30
2023-04-16T01:43:10.634Z,79.57
2023-04-16T01:45:38.460Z,80.39
2023-04-16T01:48:06.578Z,79.84
2023-04-16T01:50:34.645Z,79.38
2023-04-16T01:53:04.951Z,78.99
2023-04-16T01:55:34.945Z,79.62
2023-04-16T01:58:02.624Z,78.45
2023-04-16T02:00:30.522Z,78.98
2023-04-16T02:02:58.437Z,80.33
2023-04-16T02:05:26.193Z,80.33
2023-04-16T02:07:53.910Z,81.24
2023-04-16T02:10:22.158Z,79.81
2023-04-16T02:12:51.264Z,80.28
2023-04-16T02:15:19.116Z,80.33
2023-04-16T02:17:48.624Z,81.78
2023-04-16T02:20:17.700Z,82.89
2023-04-16T02:22:45.549Z,84.25
2023-04-16T02:25:14.259Z,82.47
2023-04-16T02:27:42.008Z,80.86
2023-04-16T02:30:12.407Z,80.12
2023-04-16T02:32:40.311Z,81.66
2023-04-16T02:35:08.754Z,80.85
2023-04-16T02:37:36.442Z,81.95
2023-04-16T02:40:04.160Z,82.37
2023-04-16T02:42:31.849Z,82.31
2023-04-16T02:44:59.530Z,81.18
2023-04-16T02:47:28.656Z,81.28
2023-04-16T02:49:56.415Z,81.52
2023-04-16T02:52:24.165Z,80.77
2023-04-16T02:54:51.824Z,80.16
2023-04-16T02:57:19.557Z,80.77
2023-04-16T02:59:47.285Z,80.12
2023-04-16T03:02:15.056Z,80.04
2023-04-16T03:04:44.333Z,81.14
2023-04-16T03:07:13.008Z,81.73
2023-04-16T03:09:40.794Z,83.24
2023-04-16T03:12:08.551Z,80.74
2023-04-16T03:14:36.248Z,80.25
2023-04-16T03:17:03.973Z,80.90
2023-04-16T03:19:31.743Z,80.91
2023-04-16T03:22:00.805Z,81.79
2023-04-16T03:24:29.450Z,82.10
2023-04-16T03:26:58.864Z,80.97
2023-04-16T03:29:27.079Z,81.02
2023-04-16T03:31:54.767Z,80.33
2023-04-16T03:34:22.405Z,81.42
2023-04-16T03:36:50.071Z,81.68
2023-04-16T03:39:19.170Z,80.87
2023-04-16T03:41:46.945Z,81.44
2023-04-16T03:44:14.681Z,82.84
2023-04-16T03:46:42.447Z,81.34
2023-04-16T03:49:10.371Z,81.01
2023-04-16T03:51:38.220Z,81.22
2023-04-16T03:54:05.940Z,82.52
2023-04-16T03:56:35.148Z,83.15
2023-04-16T03:59:02.857Z,82.91
2023-04-16T04:01:30.597Z,82.68
2023-04-16T04:03:58.493Z,83.53
2023-04-16T04:06:26.435Z,81.84
2023-04-16T04:08:54.302Z,82.81
2023-04-16T04:11:22.269Z,83.04
2023-04-16T04:13:51.268Z,82.15
2023-04-16T04:16:19.024Z,81.78
2023-04-16T04:18:46.919Z,82.06
2023-04-16T04:21:14.660Z,83.69
2023-04-16T04:23:43.626Z,82.45
2023-04-16T04:26:11.346Z,82.36
2023-04-16T04:28:39.099Z,81.79
2023-04-16T04:31:08.220Z,82.00
2023-04-16T04:33:36.076Z,82.64
2023-04-16T04:36:03.813Z,82.91
2023-04-16T04:38:31.770Z,83.12
2023-04-16T04:41:00.346Z,83.02
2023-04-16T04:43:28.075Z,84.49
2023-04-16T04:45:55.990Z,85.02
2023-04-16T04:48:26.779Z,83.69
2023-04-16T04:50:54.760Z,83.31
2023-04-16T04:53:22.470Z,83.06
2023-04-16T04:55:53.194Z,83.38
2023-04-16T04:58:23.266Z,81.01
2023-04-16T05:00:51.071Z,81.26
2023-04-16T05:03:22.233Z,81.71
2023-04-16T05:05:51.332Z,82.05
2023-04-16T05:08:19.073Z,81.81
2023-04-16T05:10:47.026Z,81.37
2023-04-16T05:13:14.989Z,80.56
2023-04-16T05:15:42.736Z,81.12
2023-04-16T05:18:10.445Z,81.05
2023-04-16T05:20:38.824Z,80.47
2023-04-16T05:23:07.908Z,79.36
2023-04-16T05:25:35.826Z,79.31
2023-04-16T05:28:03.512Z,80.19
2023-04-16T05:30:31.272Z,81.51
2023-04-16T05:32:59.067Z,81.31
2023-04-16T05:35:27.746Z,80.89
2023-04-16T05:37:55.501Z,80.90
2023-04-16T05:40:24.608Z,79.90
2023-04-16T05:42:52.295Z,80.30
2023-04-16T05:45:20.127Z,80.02
2023-04-16T05:47:47.951Z,80.68
2023-04-16T05:50:16.005Z,81.18
2023-04-16T05:52:44.047Z,80.35
2023-04-16T05:55:11.789Z,81.71
2023-04-16T05:57:40.844Z,82.52
2023-04-16T06:00:09.430Z,82.21
2023-04-16T06:02:37.426Z,81.60
2023-04-16T06:05:05.988Z,82.30
2023-04-16T06:07:33.737Z,82.65
2023-04-16T06:10:01.477Z,83.20
2023-04-16T06:12:29.291Z,81.03
2023-04-16T06:14:58.443Z,82.64
2023-04-16T06:17:27.148Z,82.70
2023-04-16T06:19:54.966Z,81.73
2023-04-16T06:22:22.794Z,83.43
2023-04-16T06:24:50.608Z,82.34
2023-04-16T06:27:18.307Z,82.47
2023-04-16T06:29:46.156Z,82.34
2023-04-16T06:32:17.217Z,81.59
2023-04-16T06:34:44.958Z,81.62
2023-04-16T06:37:12.678Z,81.46
2023-04-16T06:39:40.740Z,81.89
2023-04-16T06:42:08.595Z,81.57
2023-04-16T06:44:36.920Z,81.43
2023-04-16T06:47:04.716Z,79.78
2023-04-16T06:49:33.879Z,80.24
2023-04-16T06:52:02.824Z,80.09
2023-04-16T06:54:32.328Z,80.71
2023-04-16T06:57:00.087Z,80.46
2023-04-16T06:59:27.746Z,79.24
2023-04-16T07:01:55.527Z,80.11
2023-04-16T07:04:24.148Z,79.05
2023-04-16T07:06:53.219Z,77.95
2023-04-16T07:09:20.945Z,78.47
2023-04-16T07:11:48.651Z,77.69
2023-04-16T07:14:16.417Z,76.89
2023-04-16T07:16:44.199Z,76.88
2023-04-16T07:19:12.455Z,78.06
2023-04-16T07:21:41.941Z,77.15
2023-04-16T07:24:11.184Z,79.06
2023-04-16T07:26:38.994Z,78.47
2023-04-16T07:29:06.787Z,78.80
2023-04-16T07:31:34.592Z,78.25
2023-04-16T07:34:02.370Z,78.74
2023-04-16T07:36:30.148Z,80.34
2023-04-16T07:38:57.976Z,81.27
2023-04-16T07:41:27.252Z,79.38
2023-04-16T07:43:54.925Z,77.89
2023-04-16T07:46:24.727Z,80.70
2023-04-16T07:48:52.758Z,80.69
2023-04-16T07:51:20.508Z,81.13
2023-04-16T07:53:48.180Z,77.78
2023-04-16T07:56:15.999Z,75.60
2023-04-16T07:58:44.987Z,73.86
2023-04-16T08:01:12.822Z,78.47
2023-04-16T08:03:40.899Z,80.36
2023-04-16T08:06:08.814Z,79.06
2023-04-16T08:08:36.538Z,79.96
2023-04-16T08:11:04.359Z,81.31
2023-04-16T08:13:33.560Z,81.24
2023-04-16T08:16:02.892Z,79.31
2023-04-16T08:18:30.724Z,79.67
2023-04-16T08:20:58.507Z,76.60
2023-04-16T08:23:26.263Z,73.72
2023-04-16T08:25:53.927Z,75.75
2023-04-16T08:28:21.610Z,75.57
2023-04-16T08:30:49.301Z,72.60
2023-04-16T08:33:18.417Z,74.91
2023-04-16T08:35:46.200Z,71.69
2023-04-16T08:38:13.941Z,72.47
2023-04-16T08:40:43.038Z,70.58
2023-04-16T08:43:12.392Z,71.71
2023-04-16T08:45:41.925Z,73.19
2023-04-16T08:48:12.441Z,67.04
2023-04-16T08:50:42.223Z,69.62
2023-04-16T08:53:17.354Z,68.92
2023-04-16T08:55:49.068Z,68.49
2023-04-16T08:58:20.766Z,72.32
2023-04-16T09:00:49.597Z,69.04
2023-04-16T09:03:19.825Z,66.34
2023-04-16T09:05:50.524Z,62.35
2023-04-16T09:08:18.679Z,62.48
2023-04-16T09:10:47.313Z,60.16
2023-04-16T09:13:16.947Z,60.38
2023-04-16T09:15:45.374Z,64.38
2023-04-16T09:18:13.146Z,63.18
2023-04-16T09:20:41.044Z,61.90
2023-04-16T09:23:10.336Z,62.11
2023-04-16T09:25:38.640Z,59.45
2023-04-16T09:28:06.610Z,58.53
2023-04-16T09:30:34.881Z,61.35
2023-04-16T09:33:22.500Z,61.11
2023-04-16T09:35:52.701Z,61.09
2023-04-16T09:38:22.043Z,57.51
2023-04-16T09:41:06.535Z,56.53
2023-04-16T09:43:34.245Z,54.61
2023-04-16T09:46:03.774Z,55.75
2023-04-16T09:48:36.015Z,57.08
2023-04-16T09:51:06.784Z,55.16
2023-04-16T09:53:36.363Z,54.41
2023-04-16T09:56:07.340Z,53.32
2023-04-16T09:58:37.551Z,53.56
2023-04-16T10:01:08.505Z,53.28
2023-04-16T10:03:38.243Z,52.30
2023-04-16T10:06:10.314Z,55.60
2023-04-16T10:08:44.530Z,50.46
2023-04-16T10:11:12.435Z,50.35
2023-04-16T10:13:40.150Z,51.46
2023-04-16T10:16:08.941Z,48.49
2023-04-16T10:18:38.169Z,47.88
2023-04-16T10:21:06.694Z,49.38
2023-04-16T10:23:35.052Z,48.66
2023-04-16T10:26:04.141Z,48.42
2023-04-16T10:28:35.251Z,46.01
2023-04-16T10:31:04.651Z,46.00
2023-04-16T10:33:34.964Z,46.37
2023-04-16T10:36:10.491Z,46.26
2023-04-16T10:38:40.422Z,47.27
2023-04-16T10:41:09.801Z,48.94
2023-04-16T10:43:42.156Z,49.50
2023-04-16T10:46:21.189Z,49.35
2023-04-16T10:48:50.956Z,48.06
2023-04-16T10:51:27.839Z,47.76
2023-04-16T10:53:56.614Z,46.29
2023-04-16T10:56:26.780Z,45.62
2023-04-16T10:58:56.862Z,45.91
2023-04-16T11:01:32.179Z,46.85
2023-04-16T11:04:04.731Z,50.94
2023-04-16T11:06:32.849Z,48.67
2023-04-16T11:09:00.565Z,48.37
2023-04-16T11:11:39.253Z,49.04
2023-04-16T11:14:09.849Z,46.63
2023-04-16T11:16:41.779Z,47.03
2023-04-16T11:19:16.303Z,47.56
2023-04-16T11:21:46.269Z,47.84
2023-04-16T11:24:14.028Z,47.86
2023-04-16T11:26:43.086Z,49.19
2023-04-16T11:29:15.547Z,48.44
2023-04-16T11:31:43.374Z,47.70
2023-04-16T11:34:11.402Z,47.09
2023-04-16T11:36:44.477Z,46.79
2023-04-16T11:39:12.471Z,45.71
2023-04-16T11:41:45.056Z,44.20
2023-04-16T11:44:20.064Z,47.42
2023-04-16T11:46:47.857Z,45.10
2023-04-16T11:49:17.334Z,45.22
2023-04-16T11:51:46.703Z,43.45
2023-04-16T11:54:21.022Z,43.52
2023-04-16T11:56:51.762Z,46.76
2023-04-16T11:59:22.835Z,47.55
2023-04-16T12:01:52.200Z,48.32
2023-04-16T12:04:22.266Z,47.11
2023-04-16T12:07:06.185Z,45.32
2023-04-16T12:09:36.089Z,47.69
2023-04-16T12:12:07.656Z,47.57
2023-04-16T12:14:35.585Z,44.03
2023-04-16T12:17:18.947Z,43.21
2023-04-16T12:19:49.742Z,42.15
2023-04-16T12:22:17.492Z,44.35
2023-04-16T12:24:45.177Z,45.17
2023-04-16T12:27:16.450Z,46.49
2023-04-16T12:29:44.126Z,45.53
2023-04-16T12:32:23.424Z,44.68
2023-04-16T12:34:51.733Z,45.62
2023-04-16T12:37:19.488Z,43.79
2023-04-16T12:39:48.126Z,44.55
2023-04-16T12:42:17.330Z,46.37
2023-04-16T12:44:45.003Z,43.38
2023-04-16T12:47:12.718Z,42.33
2023-04-16T12:49:40.611Z,42.77
2023-04-16T12:52:08.344Z,42.67
2023-04-16T12:54:36.086Z,44.90
2023-04-16T12:57:03.893Z,42.92
2023-04-16T12:59:32.977Z,41.94
2023-04-16T13:02:02.451Z,44.09
2023-04-16T13:04:30.278Z,44.95
2023-04-16T13:06:58.178Z,45.56
2023-04-16T13:09:27.043Z,42.28
2023-04-16T13:11:54.771Z,44.04
2023-04-16T13:14:24.383Z,45.95
2023-04-16T13:16:53.445Z,42.83
2023-04-16T13:19:21.220Z,42.40
2023-04-16T13:21:48.953Z,42.44
2023-04-16T13:24:16.767Z,42.76
2023-04-16T13:26:44.574Z,45.38
2023-04-16T13:29:12.715Z,42.21
2023-04-16T13:31:40.717Z,42.36
2023-04-16T13:34:09.825Z,40.99
2023-04-16T13:36:37.577Z,41.93
2023-04-16T13:39:10.695Z,42.13
2023-04-16T13:41:38.730Z,42.21
2023-04-16T13:44:06.761Z,39.52
2023-04-16T13:46:34.643Z,41.96
2023-04-16T13:49:02.430Z,42.13
2023-04-16T13:51:32.043Z,43.92
2023-04-16T13:53:59.775Z,44.45
2023-04-16T13:56:27.565Z,45.01
2023-04-16T13:58:55.434Z,42.22
2023-04-16T14:01:23.399Z,39.79
2023-04-16T14:03:51.389Z,41.30
2023-04-16T14:06:19.203Z,41.84
2023-04-16T14:08:48.281Z,41.89
2023-04-16T14:11:16.108Z,40.71
2023-04-16T14:13:43.829Z,39.99
2023-04-16T14:16:11.773Z,39.23
2023-04-16T14:18:42.367Z,40.41
2023-04-16T14:21:10.176Z,40.57
2023-04-16T14:23:37.906Z,40.15
2023-04-16T14:26:07.057Z,40.57
2023-04-16T14:28:35.491Z,44.53
2023-04-16T14:31:03.442Z,42.92
2023-04-16T14:33:32.380Z,42.06
2023-04-16T14:36:02.669Z,41.89
2023-04-16T14:38:31.407Z,43.21
2023-04-16T14:41:00.200Z,42.46
2023-04-16T14:43:29.396Z,42.70
2023-04-16T14:45:58.614Z,42.50
2023-04-16T14:48:26.448Z,41.33
2023-04-16T14:50:54.920Z,39.47
2023-04-16T14:53:24.112Z,39.54
2023-04-16T14:55:53.129Z,39.30
2023-04-16T14:58:21.843Z,37.02
2023-04-16T15:00:50.956Z,39.42
2023-04-16T15:03:18.870Z,39.97
2023-04-16T15:05:50.829Z,38.63
2023-04-16T15:08:18.608Z,38.93
2023-04-16T15:10:46.345Z,39.77
2023-04-16T15:13:14.130Z,41.13
2023-04-16T15:15:41.869Z,40.85
2023-04-16T15:18:11.188Z,41.92
2023-04-16T15:20:38.905Z,41.17
2023-04-16T15:23:06.684Z,41.63
2023-04-16T15:25:34.585Z,40.56
2023-04-16T15:28:02.749Z,40.93
2023-04-16T15:30:32.134Z,39.23
2023-04-16T15:33:00.015Z,40.27
2023-04-16T15:35:29.186Z,39.58
2023-04-16T15:37:56.896Z,40.30
2023-04-16T15:40:26.159Z,40.88
2023-04-16T15:42:53.955Z,40.26
2023-04-16T15:45:21.953Z,41.05
2023-04-16T15:47:51.334Z,41.88
2023-04-16T15:50:19.490Z,42.42
2023-04-16T15:52:48.771Z,43.32
2023-04-16T15:55:17.602Z,42.25
2023-04-16T15:57:45.523Z,41.65
2023-04-16T16:00:15.560Z,42.49
2023-04-16T16:02:44.489Z,43.02
2023-04-16T16:05:13.772Z,44.36
2023-04-16T16:07:41.739Z,42.24
2023-04-16T16:10:13.143Z,41.49
2023-04-16T16:12:41.263Z,42.78
2023-04-16T16:15:10.892Z,43.64
2023-04-16T16:17:38.779Z,43.06
2023-04-16T16:20:10.264Z,43.00
2023-04-16T16:22:39.115Z,42.79
2023-04-16T16:25:08.146Z,43.07
2023-04-16T16:27:37.294Z,44.03
2023-04-16T16:30:07.329Z,45.80
2023-04-16T16:32:35.121Z,44.30
2023-04-16T16:35:02.913Z,44.93
2023-04-16T16:37:30.738Z,44.41
2023-04-16T16:39:58.459Z,43.82
2023-04-16T16:42:26.655Z,43.03
2023-04-16T16:44:57.449Z,44.03
2023-04-16T16:47:25.448Z,44.38
2023-04-16T16:49:54.649Z,45.94
2023-04-16T16:52:24.645Z,45.48
2023-04-16T16:54:52.439Z,44.47
2023-04-16T16:57:20.492Z,44.56
2023-04-16T16:59:48.426Z,44.37
2023-04-16T17:02:17.672Z,44.78
2023-04-16T17:04:45.602Z,45.43
2023-04-16T17:07:13.576Z,44.73
2023-04-16T17:09:41.301Z,44.35
2023-04-16T17:12:09.246Z,44.21
2023-04-16T17:14:36.998Z,44.33
2023-04-16T17:17:04.728Z,45.93
2023-04-16T17:19:33.833Z,45.01
2023-04-16T17:22:01.643Z,45.02
2023-04-16T17:24:29.468Z,45.68
2023-04-16T17:26:58.439Z,45.15
2023-04-16T17:29:26.641Z,46.29
2023-04-16T17:31:54.763Z,45.65
2023-04-16T17:34:22.689Z,45.67
2023-04-16T17:36:51.758Z,46.89
2023-04-16T17:39:20.721Z,47.20
2023-04-16T17:41:54.128Z,47.60
2023-04-16T17:44:22.999Z,47.36
2023-04-16T17:46:50.830Z,46.99
2023-04-16T17:49:18.580Z,46.78
2023-04-16T17:51:46.377Z,47.52
2023-04-16T17:54:15.643Z,47.35
2023-04-16T17:56:43.352Z,48.75
2023-04-16T17:59:11.456Z,48.53
2023-04-16T18:01:39.375Z,47.64
2023-04-16T18:04:07.432Z,48.67
2023-04-16T18:06:35.396Z,47.55
2023-04-16T18:09:04.921Z,48.25
2023-04-16T18:11:34.212Z,48.08
2023-04-16T18:14:01.915Z,49.64
2023-04-16T18:16:29.662Z,49.59
2023-04-16T18:18:57.655Z,49.31
2023-04-16T18:21:25.858Z,49.84
2023-04-16T18:23:53.633Z,50.46
2023-04-16T18:26:22.951Z,50.32
2023-04-16T18:28:52.171Z,50.57
2023-04-16T18:31:21.265Z,49.41
2023-04-16T18:33:57.577Z,48.67
2023-04-16T18:36:26.711Z,48.52
2023-04-16T18:41:26.923Z,50.22
2023-04-16T18:43:56.022Z,50.97
2023-04-16T18:46:23.856Z,49.73
2023-04-16T18:48:51.756Z,50.90
2023-04-16T18:51:19.503Z,51.13
2023-04-16T18:53:47.215Z,51.39
2023-04-16T18:56:14.920Z,51.68
2023-04-16T18:58:43.182Z,52.07
2023-04-16T19:01:13.937Z,52.26
2023-04-16T19:03:41.756Z,52.63
2023-04-16T19:06:09.699Z,53.32
2023-04-16T19:08:37.404Z,53.48
2023-04-16T19:11:05.157Z,54.39
2023-04-16T19:13:32.904Z,54.01
2023-04-16T19:16:02.070Z,53.68
2023-04-16T19:18:31.330Z,53.60
2023-04-16T19:21:02.352Z,54.70
2023-04-16T19:23:30.351Z,55.50
2023-04-16T19:25:58.103Z,55.88
2023-04-16T19:28:26.265Z,57.14
2023-04-16T19:30:54.489Z,58.41
2023-04-16T19:33:22.219Z,58.43
2023-04-16T19:35:51.331Z,61.03
2023-04-16T19:38:19.040Z,62.39
2023-04-16T19:40:47.413Z,63.62
2023-04-16T19:43:15.592Z,63.36
2023-04-16T19:45:44.388Z,64.25
2023-04-16T19:48:12.343Z,64.32
2023-04-16T19:50:41.268Z,65.94
2023-04-16T19:53:10.739Z,64.63
2023-04-16T19:55:40.391Z,66.03
2023-04-16T19:58:08.266Z,69.47
2023-04-16T20:00:38.325Z,69.76
2023-04-16T20:03:06.466Z,71.84
2023-04-16T20:05:34.642Z,70.06
2023-04-16T20:08:02.384Z,70.48
2023-04-16T20:10:31.949Z,69.81
2023-04-16T20:12:59.736Z,70.88
2023-04-16T20:15:27.427Z,70.87
2023-04-16T20:17:56.055Z,71.26
2023-04-16T20:20:23.996Z,71.13
2023-04-16T20:22:51.788Z,71.21
2023-04-16T20:25:20.667Z,71.52
2023-04-16T20:27:49.790Z,72.06
2023-04-16T20:30:17.499Z,71.39
2023-04-16T20:32:45.291Z,70.73
2023-04-16T20:35:13.014Z,70.61
2023-04-16T20:37:42.297Z,69.81
2023-04-16T20:40:11.068Z,70.11
2023-04-16T20:42:38.868Z,71.08
2023-04-16T20:45:09.724Z,70.74
2023-04-16T20:47:37.449Z,72.70
2023-04-16T20:50:05.738Z,73.62
2023-04-16T20:52:33.518Z,74.62
2023-04-16T20:55:01.471Z,74.44
2023-04-16T20:57:29.655Z,73.69
2023-04-16T20:59:58.390Z,74.04
2023-04-16T21:02:28.219Z,73.77
2023-04-16T21:04:56.323Z,73.59
2023-04-16T21:07:24.064Z,71.98
2023-04-16T21:09:51.798Z,73.08
2023-04-16T21:12:19.539Z,74.55
2023-04-16T21:14:47.282Z,74.35
2023-04-16T21:17:14.965Z,74.63
2023-04-16T21:19:44.074Z,75.97
2023-04-16T21:22:11.770Z,75.21
2023-04-16T21:24:39.481Z,76.50
2023-04-16T21:27:07.128Z,77.14
2023-04-16T21:29:34.831Z,76.16
2023-04-16T21:32:02.495Z,73.95
2023-04-16T21:34:30.157Z,73.13
2023-04-16T21:36:59.322Z,74.00
2023-04-16T21:39:30.858Z,74.37
2023-04-16T21:41:58.653Z,74.37
2023-04-16T21:44:26.513Z,74.32
2023-04-16T21:46:54.300Z,72.41
2023-04-16T21:49:22.047Z,73.15
2023-04-16T21:51:50.153Z,72.41
2023-04-16T21:54:20.642Z,71.08
2023-04-16T21:56:48.346Z,71.86
2023-04-16T21:59:16.032Z,73.78
2023-04-16T22:01:43.886Z,74.10
2023-04-16T22:04:12.185Z,74.63
2023-04-16T22:06:40.395Z,74.35
2023-04-16T22:09:08.131Z,74.37
2023-04-16T22:11:38.329Z,74.41
2023-04-16T22:14:08.315Z,74.73
2023-04-16T22:16:36.295Z,73.34
2023-04-16T22:19:04.029Z,73.35
2023-04-16T22:21:32.360Z,74.40
2023-04-16T22:24:00.144Z,73.42
2023-04-16T22:26:27.864Z,73.66
2023-04-16T22:28:56.961Z,73.72
2023-04-16T22:31:24.762Z,74.62
2023-04-16T22:33:52.549Z,73.98
2023-04-16T22:36:21.031Z,73.51
2023-04-16T22:38:48.747Z,73.25
2023-04-16T22:41:16.469Z,74.25
2023-04-16T22:43:44.204Z,73.64
2023-04-16T22:46:13.422Z,75.13
2023-04-16T22:48:41.219Z,76.34
2023-04-16T22:51:10.061Z,74.53
2023-04-16T22:53:38.145Z,74.27
2023-04-16T22:56:06.372Z,73.63
2023-04-16T22:58:34.154Z,74.76
2023-04-16T23:01:02.022Z,75.83
2023-04-16T23:03:31.400Z,75.69
2023-04-16T23:05:59.260Z,76.01
2023-04-16T23:08:26.950Z,76.18
2023-04-16T23:10:54.697Z,74.91
2023-04-16T23:13:22.540Z,74.73
2023-04-16T23:15:50.366Z,75.59
2023-04-16T23:18:18.160Z,75.43
2023-04-16T23:20:47.249Z,73.22
2023-04-16T23:23:14.976Z,74.34
2023-04-16T23:25:42.804Z,73.56
2023-04-16T23:28:10.569Z,73.38
2023-04-16T23:30:38.380Z,74.08
2023-04-16T23:33:06.125Z,72.63
2023-04-16T23:35:33.906Z,73.71
2023-04-16T23:38:03.373Z,72.55
2023-04-16T23:40:31.258Z,74.58
2023-04-16T23:42:58.952Z,72.30
2023-04-16T23:45:26.759Z,71.41
2023-04-16T23:47:54.521Z,72.15
2023-04-16T23:50:22.289Z,72.89
2023-04-16T23:52:49.997Z,73.04
2023-04-16T23:55:19.050Z,71.77
2023-04-16T23:57:46.795Z,71.56
